createdAt,value
2018-06-03T00:01:41.758Z,4.45
2018-06-03T00:04:07.986Z,5.07
2018-06-03T00:06:34.155Z,5.00
2018-06-03T00:09:00.309Z,4.07
2018-06-03T00:11:26.493Z,3.80
2018-06-03T00:13:52.666Z,3.95
2018-06-03T00:16:18.818Z,4.68
2018-06-03T00:18:45.008Z,4.65
2018-06-03T00:21:33.898Z,4.68
2018-06-03T00:24:00.077Z,7.20
2018-06-03T00:26:26.241Z,7.65
2018-06-03T00:28:53.522Z,4.72
2018-06-03T00:31:19.723Z,5.80
2018-06-03T00:33:45.900Z,5.62
2018-06-03T00:36:24.389Z,8.93
2018-06-03T00:38:50.557Z,5.87
2018-06-03T00:41:17.829Z,5.00
2018-06-03T00:43:44.006Z,5.28
2018-06-03T00:46:10.158Z,6.95
2018-06-03T00:48:36.310Z,5.57
2018-06-03T00:51:02.506Z,6.57
2018-06-03T00:53:28.666Z,5.28
2018-06-03T00:55:54.824Z,6.25
2018-06-03T00:58:21.006Z,6.07
2018-06-03T01:00:49.037Z,4.30
2018-06-03T01:03:15.194Z,5.20
2018-06-03T01:05:41.385Z,4.37
2018-06-03T01:08:07.550Z,4.90
2018-06-03T01:10:33.715Z,4.40
2018-06-03T01:12:59.897Z,4.90
2018-06-03T01:15:26.058Z,4.75
2018-06-03T01:17:52.232Z,5.03
2018-06-03T01:20:18.422Z,5.00
2018-06-03T01:22:44.598Z,5.45
2018-06-03T01:25:10.750Z,5.03
2018-06-03T01:27:36.946Z,6.60
2018-06-03T01:30:03.130Z,6.45
2018-06-03T01:32:29.291Z,4.85
2018-06-03T01:34:56.594Z,5.30
2018-06-03T01:37:22.749Z,4.82
2018-06-03T01:39:48.918Z,4.22
2018-06-03T01:42:15.090Z,5.03
2018-06-03T01:44:42.371Z,4.87
2018-06-03T01:47:08.530Z,4.40
2018-06-03T01:49:34.703Z,4.35
2018-06-03T01:52:00.854Z,4.32
2018-06-03T01:54:27.010Z,6.90
2018-06-03T01:56:54.298Z,4.70
2018-06-03T01:59:20.466Z,4.28
2018-06-03T02:01:46.618Z,3.85
2018-06-03T02:04:12.793Z,4.57
2018-06-03T02:06:38.956Z,4.55
2018-06-03T02:09:05.143Z,3.62
2018-06-03T02:11:31.331Z,3.80
2018-06-03T02:13:59.219Z,4.40
2018-06-03T02:16:25.362Z,4.47
2018-06-03T02:18:51.537Z,6.37
2018-06-03T02:21:17.694Z,8.60
2018-06-03T02:23:43.854Z,5.03
2018-06-03T02:26:10.028Z,4.72
2018-06-03T02:28:36.195Z,4.22
2018-06-03T02:31:02.349Z,4.50
2018-06-03T02:33:28.528Z,3.80
2018-06-03T02:35:56.175Z,4.93
2018-06-03T02:38:22.326Z,3.92
2018-06-03T02:40:48.502Z,5.60
2018-06-03T02:43:14.650Z,3.65
2018-06-03T02:45:40.799Z,3.75
2018-06-03T02:48:06.984Z,5.70
2018-06-03T02:50:33.146Z,6.30
2018-06-03T02:52:59.327Z,4.78
2018-06-03T02:55:25.520Z,4.57
2018-06-03T02:57:52.827Z,4.97
2018-06-03T03:00:19.003Z,7.62
2018-06-03T03:02:45.515Z,4.12
2018-06-03T03:05:11.979Z,5.10
2018-06-03T03:07:38.419Z,6.22
2018-06-03T03:10:04.983Z,4.80
2018-06-03T03:12:31.424Z,4.12
2018-06-03T03:14:57.861Z,4.10
2018-06-03T03:17:24.071Z,4.97
2018-06-03T03:19:50.235Z,5.90
2018-06-03T03:22:16.398Z,4.37
2018-06-03T03:24:42.569Z,4.45
2018-06-03T03:27:09.847Z,9.65
2018-06-03T03:29:37.725Z,4.50
2018-06-03T03:32:05.035Z,5.82
2018-06-03T03:34:31.193Z,5.10
2018-06-03T03:36:57.367Z,6.35
2018-06-03T03:39:24.647Z,4.35
2018-06-03T03:41:50.814Z,4.18
2018-06-03T03:44:16.970Z,3.80
2018-06-03T03:46:43.154Z,8.00
2018-06-03T03:49:10.431Z,6.55
2018-06-03T03:51:36.596Z,4.30
2018-06-03T03:54:02.783Z,3.60
2018-06-03T03:56:28.937Z,5.37
2018-06-03T03:58:56.205Z,6.40
2018-06-03T04:01:23.502Z,3.58
2018-06-03T04:03:49.675Z,2.83
2018-06-03T04:06:50.017Z,4.25
2018-06-03T04:09:17.533Z,4.25
2018-06-03T04:11:44.991Z,7.50
2018-06-03T04:14:12.469Z,6.75
2018-06-03T04:16:39.937Z,4.20
2018-06-03T04:19:07.405Z,4.35
2018-06-03T04:21:35.891Z,4.58
2018-06-03T04:24:03.482Z,5.55
2018-06-03T04:26:31.000Z,3.98
2018-06-03T04:28:58.529Z,3.33
2018-06-03T04:31:25.993Z,4.03
2018-06-03T04:33:53.540Z,4.42
2018-06-03T04:36:21.041Z,4.15
2018-06-03T04:38:48.545Z,4.33
2018-06-03T04:41:16.056Z,5.10
2018-06-03T04:43:43.595Z,5.15
2018-06-03T04:46:11.061Z,4.05
2018-06-03T04:48:38.545Z,3.95
2018-06-03T04:51:06.260Z,5.37
2018-06-03T04:53:33.904Z,7.47
2018-06-03T04:56:01.402Z,4.85
2018-06-03T04:58:28.878Z,4.03
2018-06-03T05:00:56.936Z,4.22
2018-06-03T05:03:24.413Z,4.35
2018-06-03T05:05:51.989Z,3.80
2018-06-03T05:08:19.529Z,5.35
2018-06-03T05:10:47.001Z,4.33
2018-06-03T05:13:14.645Z,7.08
2018-06-03T05:15:42.104Z,5.30
2018-06-03T05:18:09.574Z,5.05
2018-06-03T05:20:37.076Z,6.30
2018-06-03T05:23:04.638Z,6.58
2018-06-03T05:25:32.244Z,8.38
2018-06-03T05:27:59.705Z,7.22
2018-06-03T05:30:27.181Z,7.85
2018-06-03T05:32:54.680Z,7.05
2018-06-03T05:35:22.226Z,8.03
2018-06-03T05:37:49.737Z,7.30
2018-06-03T05:40:17.217Z,7.10
2018-06-03T05:42:44.751Z,8.95
2018-06-03T05:45:12.261Z,8.85
2018-06-03T05:47:39.724Z,8.08
2018-06-03T05:50:07.204Z,7.65
2018-06-03T05:52:34.710Z,6.70
2018-06-03T05:55:02.165Z,6.50
2018-06-03T05:57:29.639Z,9.88
2018-06-03T05:59:57.146Z,8.18
2018-06-03T06:02:24.617Z,6.65
2018-06-03T06:04:52.102Z,7.42
2018-06-03T06:07:19.575Z,7.15
2018-06-03T06:09:47.033Z,9.38
2018-06-03T06:12:14.582Z,7.03
2018-06-03T06:14:42.865Z,7.20
2018-06-03T06:17:10.381Z,8.68
2018-06-03T06:19:37.873Z,7.67
2018-06-03T06:22:05.433Z,7.60
2018-06-03T06:24:32.948Z,7.35
2018-06-03T06:27:00.482Z,7.12
2018-06-03T06:29:28.040Z,5.50
2018-06-03T06:31:55.499Z,10.38
2018-06-03T06:34:23.047Z,10.63
2018-06-03T06:36:50.629Z,6.20
2018-06-03T06:39:18.468Z,7.87
2018-06-03T06:41:45.947Z,6.03
2018-06-03T06:44:14.519Z,7.58
2018-06-03T06:46:42.013Z,5.50
2018-06-03T06:49:09.558Z,4.90
2018-06-03T06:51:37.034Z,8.93
2018-06-03T06:54:04.557Z,4.37
2018-06-03T06:56:32.726Z,5.72
2018-06-03T06:59:00.258Z,5.22
2018-06-03T07:01:27.770Z,4.72
2018-06-03T07:03:55.322Z,4.20
2018-06-03T07:06:22.817Z,4.70
2018-06-03T07:08:50.292Z,4.20
2018-06-03T07:11:17.857Z,4.20
2018-06-03T07:13:45.332Z,3.00
2018-06-03T07:16:13.510Z,4.58
2018-06-03T07:18:41.060Z,3.00
2018-06-03T07:21:09.206Z,3.50
2018-06-03T07:23:36.781Z,3.10
2018-06-03T07:26:05.037Z,2.92
2018-06-03T07:28:32.581Z,4.00
2018-06-03T07:31:00.105Z,2.27
2018-06-03T07:33:27.706Z,3.00
2018-06-03T07:35:55.173Z,2.25
2018-06-03T07:38:22.792Z,4.12
2018-06-03T07:40:50.241Z,2.55
2018-06-03T07:43:17.729Z,2.52
2018-06-03T07:45:45.201Z,2.10
2018-06-03T07:48:12.735Z,4.55
2018-06-03T07:50:40.222Z,2.15
2018-06-03T07:53:07.741Z,2.52
2018-06-03T07:55:35.412Z,2.22
2018-06-03T07:58:02.919Z,2.75
2018-06-03T08:00:30.391Z,1.60
2018-06-03T08:02:57.893Z,4.58
2018-06-03T08:05:25.649Z,1.50
2018-06-03T08:07:53.149Z,3.20
2018-06-03T08:10:20.650Z,2.20
2018-06-03T08:12:48.127Z,2.65
2018-06-03T08:15:15.647Z,1.72
2018-06-03T08:17:43.174Z,3.02
2018-06-03T08:20:10.676Z,2.33
2018-06-03T08:22:38.145Z,2.92
2018-06-03T08:25:05.700Z,1.72
2018-06-03T08:27:33.275Z,1.72
2018-06-03T08:30:00.749Z,1.52
2018-06-03T08:32:28.238Z,1.87
2018-06-03T08:34:55.732Z,1.42
2018-06-03T08:37:23.201Z,3.85
2018-06-03T08:39:50.810Z,2.27
2018-06-03T08:42:18.328Z,1.92
2018-06-03T08:44:45.841Z,3.50
2018-06-03T08:47:13.354Z,2.50
2018-06-03T08:49:40.829Z,1.60
2018-06-03T08:52:08.449Z,1.82
2018-06-03T08:54:35.922Z,5.90
2018-06-03T08:57:03.402Z,3.45
2018-06-03T08:59:30.877Z,1.72
2018-06-03T09:01:58.389Z,1.25
2018-06-03T09:04:25.857Z,2.50
2018-06-03T09:06:53.365Z,3.52
2018-06-03T09:09:20.908Z,1.35
2018-06-03T09:11:48.413Z,2.47
2018-06-03T09:14:15.887Z,5.55
2018-06-03T09:16:43.392Z,1.87
2018-06-03T09:19:10.862Z,3.20
2018-06-03T09:21:38.340Z,1.40
2018-06-03T09:24:05.832Z,4.35
2018-06-03T09:26:33.293Z,2.55
2018-06-03T09:29:00.815Z,1.30
2018-06-03T09:31:28.285Z,1.57
2018-06-03T09:33:55.753Z,4.25
2018-06-03T09:36:23.277Z,1.60
2018-06-03T09:38:50.736Z,1.00
2018-06-03T09:41:18.244Z,1.60
2018-06-03T09:43:45.721Z,3.17
2018-06-03T09:46:13.204Z,2.00
2018-06-03T09:48:40.679Z,2.15
2018-06-03T09:51:08.126Z,1.10
2018-06-03T09:53:35.607Z,1.30
2018-06-03T09:56:03.133Z,1.45
2018-06-03T09:58:30.741Z,4.25
2018-06-03T10:00:58.250Z,1.95
2018-06-03T10:03:25.881Z,2.58
2018-06-03T10:05:53.374Z,2.00
2018-06-03T10:08:20.856Z,1.50
2018-06-03T10:10:48.404Z,2.37
2018-06-03T10:13:15.941Z,1.70
2018-06-03T10:15:43.701Z,2.30
2018-06-03T10:18:11.321Z,1.98
2018-06-03T10:20:39.093Z,2.20
2018-06-03T10:23:06.606Z,1.50
2018-06-03T10:25:34.121Z,2.60
2018-06-03T10:28:01.617Z,3.20
2018-06-03T10:30:30.919Z,3.00
2018-06-03T10:32:58.520Z,1.40
2018-06-03T10:35:26.120Z,0.75
2018-06-03T10:37:53.682Z,0.90
2018-06-03T10:40:21.274Z,2.42
2018-06-03T10:42:48.877Z,0.90
2018-06-03T10:45:16.684Z,1.35
2018-06-03T10:47:44.385Z,1.27
2018-06-03T10:50:13.505Z,0.72
2018-06-03T10:52:41.129Z,3.83
2018-06-03T10:55:08.700Z,2.08
2018-06-03T10:57:36.325Z,0.95
2018-06-03T11:00:04.225Z,1.62
2018-06-03T11:02:32.917Z,1.82
2018-06-03T11:05:00.487Z,3.00
2018-06-03T11:07:27.982Z,2.25
2018-06-03T11:09:55.493Z,1.55
2018-06-03T11:12:23.105Z,0.98
2018-06-03T11:14:50.713Z,1.17
2018-06-03T11:17:18.299Z,3.67
2018-06-03T11:19:45.863Z,4.35
2018-06-03T11:22:13.496Z,2.55
2018-06-03T11:24:41.169Z,1.50
2018-06-03T11:27:08.766Z,2.67
2018-06-03T11:29:36.317Z,2.40
2018-06-03T11:32:03.835Z,1.25
2018-06-03T11:34:32.226Z,2.25
2018-06-03T11:36:59.762Z,3.70
2018-06-03T11:39:28.153Z,1.37
2018-06-03T11:41:55.951Z,3.92
2018-06-03T11:44:23.509Z,1.47
2018-06-03T11:46:51.079Z,1.82
2018-06-03T11:49:18.665Z,1.25
2018-06-03T11:51:46.294Z,1.25
2018-06-03T11:54:13.881Z,1.57
2018-06-03T11:56:47.296Z,1.67
2018-06-03T11:59:20.601Z,3.92
2018-06-03T12:01:48.448Z,1.27
2018-06-03T12:04:15.958Z,2.98
2018-06-03T12:06:43.438Z,2.25
2018-06-03T12:09:10.976Z,0.70
2018-06-03T12:11:38.525Z,2.80
2018-06-03T12:14:06.066Z,2.50
2018-06-03T12:16:33.697Z,1.17
2018-06-03T12:19:01.326Z,1.27
2018-06-03T12:21:29.058Z,0.90
2018-06-03T12:23:56.533Z,1.95
2018-06-03T12:26:24.102Z,0.75
2018-06-03T12:28:51.645Z,1.12
2018-06-03T12:31:19.335Z,0.98
2018-06-03T12:33:46.965Z,1.12
2018-06-03T12:36:14.658Z,0.72
2018-06-03T12:38:42.150Z,0.80
2018-06-03T12:41:10.088Z,1.10
2018-06-03T12:43:37.651Z,1.75
2018-06-03T12:46:05.210Z,2.45
2018-06-03T12:48:32.780Z,1.75
2018-06-03T12:51:00.437Z,2.50
2018-06-03T12:53:27.987Z,2.83
2018-06-03T12:55:56.127Z,1.90
2018-06-03T12:58:23.651Z,0.93
2018-06-03T13:00:51.205Z,1.27
2018-06-03T13:03:18.738Z,0.80
2018-06-03T13:05:46.358Z,1.35
2018-06-03T13:08:13.875Z,1.15
2018-06-03T13:10:42.396Z,2.83
2018-06-03T13:13:11.045Z,2.17
2018-06-03T13:15:38.789Z,1.65
2018-06-03T13:18:06.680Z,0.70
2018-06-03T13:20:34.065Z,1.20
2018-06-03T13:23:01.595Z,3.47
2018-06-03T13:25:29.113Z,1.47
2018-06-03T13:27:56.713Z,2.70
2018-06-03T13:30:24.206Z,3.50
2018-06-03T13:32:51.704Z,1.07
2018-06-03T13:35:19.322Z,0.70
2018-06-03T13:37:47.188Z,3.65
2018-06-03T13:40:14.890Z,2.12
2018-06-03T13:42:42.822Z,1.22
2018-06-03T13:45:10.460Z,2.60
2018-06-03T13:47:38.015Z,0.80
2018-06-03T13:50:05.530Z,3.10
2018-06-03T13:52:33.009Z,0.95
2018-06-03T13:55:00.530Z,1.27
2018-06-03T13:57:28.001Z,1.07
2018-06-03T13:59:55.701Z,2.08
2018-06-03T14:02:23.301Z,2.65
2018-06-03T14:04:50.882Z,4.53
2018-06-03T14:07:18.434Z,3.92
2018-06-03T14:09:45.925Z,1.42
2018-06-03T14:12:13.437Z,1.25
2018-06-03T14:14:40.892Z,1.10
2018-06-03T14:17:08.457Z,2.20
2018-06-03T14:19:36.030Z,1.92
2018-06-03T14:22:03.621Z,0.85
2018-06-03T14:24:31.123Z,1.12
2018-06-03T14:26:58.617Z,4.87
2018-06-03T14:29:26.129Z,1.32
2018-06-03T14:31:53.680Z,0.80
2018-06-03T14:34:21.182Z,0.70
2018-06-03T14:36:48.661Z,0.90
2018-06-03T14:39:16.221Z,2.15
2018-06-03T14:41:43.699Z,1.02
2018-06-03T14:44:11.161Z,1.10
2018-06-03T14:46:38.673Z,0.88
2018-06-03T14:49:06.157Z,1.85
2018-06-03T14:51:33.674Z,2.25
2018-06-03T14:54:01.796Z,0.85
2018-06-03T14:56:29.273Z,4.33
2018-06-03T14:58:56.959Z,5.08
2018-06-03T15:01:24.940Z,1.70
2018-06-03T15:03:52.948Z,0.70
2018-06-03T15:06:20.531Z,3.77
2018-06-03T15:08:48.094Z,1.22
2018-06-03T15:11:15.950Z,8.33
2018-06-03T15:13:43.554Z,1.45
2018-06-03T15:16:11.069Z,3.72
2018-06-03T15:18:38.555Z,3.33
2018-06-03T15:21:06.058Z,3.40
2018-06-03T15:23:33.577Z,1.10
2018-06-03T15:26:01.101Z,1.30
2018-06-03T15:28:28.692Z,4.28
2018-06-03T15:30:56.372Z,1.15
2018-06-03T15:33:23.862Z,2.08
2018-06-03T15:35:51.461Z,1.07
2018-06-03T15:38:18.930Z,2.87
2018-06-03T15:40:46.503Z,1.92
2018-06-03T15:43:14.102Z,2.62
2018-06-03T15:45:41.697Z,1.27
2018-06-03T15:48:09.328Z,2.55
2018-06-03T15:50:36.914Z,1.02
2018-06-03T15:53:04.640Z,1.07
2018-06-03T15:55:32.157Z,0.90
2018-06-03T15:57:59.971Z,1.30
2018-06-03T16:00:27.491Z,1.75
2018-06-03T16:02:55.109Z,1.35
2018-06-03T16:05:22.555Z,2.08
2018-06-03T16:07:50.054Z,3.95
2018-06-03T16:10:17.743Z,1.27
2018-06-03T16:12:45.478Z,2.25
2018-06-03T16:15:13.000Z,3.12
2018-06-03T16:17:40.585Z,3.10
2018-06-03T16:20:08.069Z,4.15
2018-06-03T16:22:35.587Z,1.85
2018-06-03T16:25:03.237Z,1.77
2018-06-03T16:27:30.809Z,1.30
2018-06-03T16:29:59.077Z,1.20
2018-06-03T16:32:26.546Z,3.35
2018-06-03T16:34:54.089Z,2.00
2018-06-03T16:37:21.606Z,2.60
2018-06-03T16:39:49.178Z,2.52
2018-06-03T16:42:16.688Z,1.12
2018-06-03T16:44:44.198Z,1.45
2018-06-03T16:47:11.814Z,1.35
2018-06-03T16:49:39.362Z,1.02
2018-06-03T16:52:06.862Z,1.15
2018-06-03T16:54:34.539Z,1.17
2018-06-03T16:57:02.034Z,1.47
2018-06-03T16:59:29.699Z,3.45
2018-06-03T17:01:57.225Z,1.10
2018-06-03T17:04:24.863Z,2.25
2018-06-03T17:06:52.414Z,2.15
2018-06-03T17:09:20.182Z,1.98
2018-06-03T17:11:47.793Z,3.27
2018-06-03T17:14:15.373Z,2.55
2018-06-03T17:16:43.015Z,0.80
2018-06-03T17:19:10.591Z,4.25
2018-06-03T17:21:38.134Z,2.30
2018-06-03T17:24:06.806Z,3.98
2018-06-03T17:26:34.395Z,1.20
2018-06-03T17:29:01.899Z,2.10
2018-06-03T17:31:29.425Z,6.40
2018-06-03T17:33:57.103Z,1.37
2018-06-03T17:36:24.722Z,8.43
2018-06-03T17:38:52.340Z,2.52
2018-06-03T17:41:19.983Z,1.35
2018-06-03T17:43:47.639Z,2.20
2018-06-03T17:46:15.145Z,2.40
2018-06-03T17:48:42.706Z,1.00
2018-06-03T17:51:10.275Z,2.40
2018-06-03T17:53:39.138Z,1.42
2018-06-03T17:56:06.661Z,2.10
2018-06-03T17:58:34.128Z,2.08
2018-06-03T18:01:01.666Z,1.90
2018-06-03T18:03:30.230Z,3.37
2018-06-03T18:05:57.714Z,1.95
2018-06-03T18:08:25.206Z,1.60
2018-06-03T18:10:52.811Z,4.25
2018-06-03T18:13:20.359Z,2.08
2018-06-03T18:15:47.928Z,1.57
2018-06-03T18:18:15.784Z,2.65
2018-06-03T18:20:43.392Z,0.95
2018-06-03T18:23:11.610Z,2.02
2018-06-03T18:25:39.714Z,2.05
2018-06-03T18:28:07.206Z,1.40
2018-06-03T18:30:34.729Z,2.50
2018-06-03T18:33:05.895Z,1.55
2018-06-03T18:35:33.513Z,2.05
2018-06-03T18:38:01.078Z,1.27
2018-06-03T18:40:29.943Z,2.30
2018-06-03T18:42:57.965Z,2.17
2018-06-03T18:45:25.485Z,2.60
2018-06-03T18:47:53.412Z,1.25
2018-06-03T18:50:20.957Z,1.35
2018-06-03T18:52:48.507Z,4.62
2018-06-03T18:55:16.060Z,1.45
2018-06-03T18:57:44.603Z,2.58
2018-06-03T19:00:12.126Z,1.95
2018-06-03T19:02:40.247Z,1.85
2018-06-03T19:05:07.850Z,2.15
2018-06-03T19:07:35.467Z,4.95
2018-06-03T19:10:03.135Z,2.15
2018-06-03T19:12:30.841Z,1.30
2018-06-03T19:14:58.711Z,1.82
2018-06-03T19:17:26.473Z,1.15
2018-06-03T19:19:54.662Z,1.42
2018-06-03T19:22:22.613Z,0.95
2018-06-03T19:24:52.460Z,1.62
2018-06-03T19:27:20.663Z,2.10
2018-06-03T19:29:51.374Z,1.27
2018-06-03T19:32:20.205Z,5.05
2018-06-03T19:34:48.035Z,3.27
2018-06-03T19:37:15.673Z,3.33
2018-06-03T19:39:45.722Z,1.95
2018-06-03T19:42:13.427Z,2.12
2018-06-03T19:44:43.601Z,4.37
2018-06-03T19:47:12.732Z,2.35
2018-06-03T19:49:42.513Z,1.35
2018-06-03T19:52:11.920Z,0.98
2018-06-03T19:54:40.919Z,1.02
2018-06-03T19:57:11.377Z,1.10
2018-06-03T19:59:39.739Z,1.30
2018-06-03T20:02:08.264Z,4.10
2018-06-03T20:04:36.733Z,1.45
2018-06-03T20:07:04.470Z,1.10
2018-06-03T20:09:32.982Z,1.92
2018-06-03T20:12:00.546Z,1.47
2018-06-03T20:14:29.335Z,1.32
2018-06-03T20:16:57.365Z,2.90
2018-06-03T20:19:24.814Z,2.70
2018-06-03T20:21:52.834Z,2.08
2018-06-03T20:24:21.558Z,4.47
2018-06-03T20:26:49.445Z,4.50
2018-06-03T20:29:17.130Z,3.50
2018-06-03T20:31:44.729Z,1.40
2018-06-03T20:34:12.813Z,1.75
2018-06-03T20:36:40.417Z,2.80
2018-06-03T20:39:08.155Z,2.02
2018-06-03T20:41:35.699Z,2.27
2018-06-03T20:44:03.799Z,2.33
2018-06-03T20:46:32.194Z,2.33
2018-06-03T20:48:59.739Z,2.52
2018-06-03T20:51:27.482Z,1.92
2018-06-03T20:53:55.281Z,2.45
2018-06-03T20:56:23.299Z,2.67
2018-06-03T20:58:51.170Z,2.80
2018-06-03T21:01:18.876Z,4.08
2018-06-03T21:03:46.760Z,4.00
2018-06-03T21:06:14.272Z,3.47
2018-06-03T21:08:43.025Z,4.28
2018-06-03T21:11:10.556Z,3.83
2018-06-03T21:13:38.213Z,4.22
2018-06-03T21:16:06.196Z,5.25
2018-06-03T21:18:34.651Z,5.10
2018-06-03T21:21:02.604Z,5.37
2018-06-03T21:23:30.524Z,10.25
2018-06-03T21:25:59.003Z,5.75
2018-06-03T21:28:27.998Z,5.75
2018-06-03T21:30:55.558Z,7.50
2018-06-03T21:33:23.065Z,7.25
2018-06-03T21:35:55.857Z,6.40
2018-06-03T21:38:24.256Z,6.92
2018-06-03T21:40:51.883Z,7.60
2018-06-03T21:43:19.538Z,7.67
2018-06-03T21:45:47.044Z,6.67
2018-06-03T21:48:14.756Z,8.90
2018-06-03T21:50:42.471Z,7.65
2018-06-03T21:53:10.077Z,7.47
2018-06-03T21:55:37.545Z,7.92
2018-06-03T21:58:05.088Z,7.65
2018-06-03T22:00:32.630Z,8.78
2018-06-03T22:03:00.149Z,9.20
2018-06-03T22:05:27.698Z,9.00
2018-06-03T22:07:55.215Z,8.65
2018-06-03T22:10:22.738Z,9.25
2018-06-03T22:12:50.197Z,8.93
2018-06-03T22:15:17.702Z,9.55
2018-06-03T22:17:45.187Z,10.53
2018-06-03T22:20:13.052Z,10.10
2018-06-03T22:22:40.557Z,11.40
2018-06-03T22:25:08.098Z,9.60
2018-06-03T22:27:35.684Z,10.32
2018-06-03T22:30:03.247Z,10.05
2018-06-03T22:32:30.759Z,9.88
2018-06-03T22:34:58.265Z,10.48
2018-06-03T22:37:25.797Z,9.33
2018-06-03T22:39:53.321Z,11.12
2018-06-03T22:42:20.809Z,9.83
2018-06-03T22:44:48.385Z,10.55
2018-06-03T22:47:16.161Z,10.40
2018-06-03T22:49:43.661Z,10.08
2018-06-03T22:52:11.270Z,12.50
2018-06-03T22:54:38.684Z,9.13
2018-06-03T22:57:37.938Z,9.68
2018-06-03T23:00:05.448Z,11.00
2018-06-03T23:02:33.011Z,13.43
2018-06-03T23:05:00.537Z,11.18
2018-06-03T23:07:28.017Z,10.68
2018-06-03T23:09:55.523Z,12.98
2018-06-03T23:12:22.990Z,11.97
2018-06-03T23:14:50.465Z,10.18
2018-06-03T23:17:18.023Z,11.60
2018-06-03T23:19:45.516Z,11.45
2018-06-03T23:22:13.015Z,10.75
2018-06-03T23:24:40.559Z,10.90
2018-06-03T23:27:08.103Z,12.93
2018-06-03T23:29:35.605Z,10.82
2018-06-03T23:32:03.061Z,11.00
2018-06-03T23:34:30.581Z,11.73
2018-06-03T23:36:58.033Z,10.20
2018-06-03T23:39:25.539Z,10.72
2018-06-03T23:41:53.009Z,12.00
2018-06-03T23:44:20.461Z,10.78
2018-06-03T23:46:47.974Z,10.88
2018-06-03T23:49:15.458Z,11.78
2018-06-03T23:51:42.940Z,11.33
2018-06-03T23:54:10.642Z,12.03
2018-06-03T23:56:38.110Z,11.53
2018-06-03T23:59:05.622Z,11.12
